Time;durP1;ratioP1;P1;durP2;ratioP2;P2;SDS_P1;SDS_P2;PMS_P1;PMS_P2;Temp;Humidity;BMP_temperature;BMP_pressure;BME280_temperature;BME280_humidity;BME280_pressure;Samples;Min_cycle;Max_cycle;Signal;HPM_P1;HPM_P2
2023/03/03 00:00:15;;;;;;;31.20;15.83;;;;;;;;;;5028268;28;20426;-53
2023/03/03 00:02:40;;;;;;;28.83;17.33;;;;;;;;;;5038401;28;20508;-53
2023/03/03 00:05:07;;;;;;;33.77;16.50;;;;;;;;;;5019858;28;21562;-54
2023/03/03 00:07:33;;;;;;;26.03;15.60;;;;;;;;;;5037810;28;21076;-53
2023/03/03 00:09:59;;;;;;;29.67;16.90;;;;;;;;;;5014264;28;20454;-53
2023/03/03 00:12:29;;;;;;;26.97;13.93;;;;;;;;;;5030764;28;21118;-53
2023/03/03 00:14:54;;;;;;;31.83;16.33;;;;;;;;;;5013535;28;20512;-53
2023/03/03 00:17:22;;;;;;;31.57;16.30;;;;;;;;;;5035270;28;20458;-54
2023/03/03 00:19:48;;;;;;;28.80;14.93;;;;;;;;;;5007483;28;20515;-54
2023/03/03 00:22:17;;;;;;;30.90;15.50;;;;;;;;;;5030643;28;21041;-55
2023/03/03 00:24:43;;;;;;;31.90;18.03;;;;;;;;;;5017792;28;23118;-53
2023/03/03 00:27:22;;;;;;;28.37;15.20;;;;;;;;;;5037156;28;20940;-51
2023/03/03 00:29:50;;;;;;;27.27;15.57;;;;;;;;;;5036919;28;20437;-51
2023/03/03 00:32:18;;;;;;;27.30;17.20;;;;;;;;;;5039047;28;20467;-52
2023/03/03 00:34:44;;;;;;;27.40;16.83;;;;;;;;;;4996643;28;20423;-53
2023/03/03 00:37:23;;;;;;;31.37;16.27;;;;;;;;;;5032985;28;20441;-52
2023/03/03 00:39:48;;;;;;;33.00;16.00;;;;;;;;;;5012123;28;20556;-53
2023/03/03 00:42:15;;;;;;;27.20;14.50;;;;;;;;;;5043178;28;20568;-52
2023/03/03 00:44:45;;;;;;;28.93;15.87;;;;;;;;;;5015833;28;20443;-52
2023/03/03 00:47:27;;;;;;;21.90;13.80;;;;;;;;;;5038744;28;20553;-52
2023/03/03 00:49:53;;;;;;;22.60;14.50;;;;;;;;;;5012761;28;20553;-50
2023/03/03 00:52:20;;;;;;;26.53;15.70;;;;;;;;;;5037272;28;20458;-51
2023/03/03 00:54:47;;;;;;;21.33;14.60;;;;;;;;;;5000406;28;20937;-53
2023/03/03 00:57:13;;;;;;;29.00;15.50;;;;;;;;;;5001471;28;20457;-54
2023/03/03 00:59:39;;;;;;;29.63;17.50;;;;;;;;;;5028107;28;20439;-51
2023/03/03 01:02:05;;;;;;;33.10;15.17;;;;;;;;;;5011087;28;20478;-53
2023/03/03 01:04:31;;;;;;;28.30;16.83;;;;;;;;;;5034417;28;20935;-58
2023/03/03 01:06:57;;;;;;;29.13;15.00;;;;;;;;;;5011464;28;20451;-53
2023/03/03 01:09:23;;;;;;;25.83;15.77;;;;;;;;;;5035422;28;20437;-53
2023/03/03 01:11:49;;;;;;;27.77;14.97;;;;;;;;;;5004093;28;20439;-52
2023/03/03 01:14:15;;;;;;;28.53;16.70;;;;;;;;;;5028280;28;20434;-52
2023/03/03 01:16:41;;;;;;;29.43;17.73;;;;;;;;;;5007974;28;20506;-54
2023/03/03 01:19:07;;;;;;;28.43;16.33;;;;;;;;;;5038783;28;20873;-52
2023/03/03 01:21:33;;;;;;;29.17;16.97;;;;;;;;;;5009297;28;20474;-54
2023/03/03 01:23:59;;;;;;;31.20;16.17;;;;;;;;;;5040277;28;20449;-53
2023/03/03 01:26:25;;;;;;;27.10;17.27;;;;;;;;;;4997847;28;20494;-53
2023/03/03 01:28:51;;;;;;;26.00;16.30;;;;;;;;;;5035770;28;20478;-50
2023/03/03 01:31:17;;;;;;;34.77;20.20;;;;;;;;;;4997776;28;20872;-52
2023/03/03 01:33:43;;;;;;;27.70;16.57;;;;;;;;;;5036496;28;21389;-52
2023/03/03 01:36:09;;;;;;;27.20;17.10;;;;;;;;;;5031857;28;20441;-52
2023/03/03 01:38:35;;;;;;;20.53;14.67;;;;;;;;;;5032555;28;20441;-52
2023/03/03 01:41:01;;;;;;;35.43;17.53;;;;;;;;;;5018550;28;20481;-53
2023/03/03 01:43:28;;;;;;;33.47;17.23;;;;;;;;;;5038385;28;20446;-52
2023/03/03 01:45:57;;;;;;;39.40;16.17;;;;;;;;;;5014566;28;20794;-51
2023/03/03 01:48:25;;;;;;;35.23;21.20;;;;;;;;;;5038065;28;20806;-50
2023/03/03 01:50:51;;;;;;;31.30;18.67;;;;;;;;;;5004549;28;20443;-52
2023/03/03 01:53:18;;;;;;;42.20;18.30;;;;;;;;;;5033819;28;20441;-52
2023/03/03 01:55:44;;;;;;;31.57;17.27;;;;;;;;;;5034497;28;20531;-52
2023/03/03 01:58:21;;;;;;;28.43;15.87;;;;;;;;;;5053387;28;20524;-51
2023/03/03 02:00:49;;;;;;;26.53;16.67;;;;;;;;;;4985198;28;20485;-53
2023/03/03 02:03:15;;;;;;;31.50;17.10;;;;;;;;;;5000265;28;20461;-52
2023/03/03 02:05:41;;;;;;;32.40;16.80;;;;;;;;;;5032866;28;20442;-53
2023/03/03 02:08:07;;;;;;;36.10;17.10;;;;;;;;;;5032567;28;20935;-52
2023/03/03 02:10:33;;;;;;;23.60;15.20;;;;;;;;;;5039286;28;21245;-53
2023/03/03 02:12:59;;;;;;;26.33;16.83;;;;;;;;;;5007453;28;20461;-52
2023/03/03 02:15:31;;;;;;;31.33;15.30;;;;;;;;;;5031295;28;20453;-49
2023/03/03 02:17:57;;;;;;;27.33;17.03;;;;;;;;;;5018206;28;20457;-52
2023/03/03 02:20:42;;;;;;;27.37;17.40;;;;;;;;;;5054696;28;20446;-49
2023/03/03 02:23:12;;;;;;;28.20;18.13;;;;;;;;;;5009663;28;20553;-52
2023/03/03 02:25:41;;;;;;;32.47;16.77;;;;;;;;;;5054623;28;20533;-51
2023/03/03 02:28:07;;;;;;;31.00;18.00;;;;;;;;;;5035877;28;20447;-52
2023/03/03 02:30:36;;;;;;;25.40;15.03;;;;;;;;;;5031511;28;21434;-52
2023/03/03 02:33:01;;;;;;;30.50;17.17;;;;;;;;;;5008687;28;20490;-53
2023/03/03 02:35:29;;;;;;;29.67;19.70;;;;;;;;;;5006950;28;20553;-53
2023/03/03 02:37:56;;;;;;;31.40;16.53;;;;;;;;;;5039418;28;20491;-52
2023/03/03 02:40:22;;;;;;;29.60;15.53;;;;;;;;;;5035017;28;20452;-52
2023/03/03 02:42:48;;;;;;;28.70;16.17;;;;;;;;;;5032928;28;20446;-52
2023/03/03 02:45:14;;;;;;;27.97;15.90;;;;;;;;;;5008899;28;20187;-51
2023/03/03 02:47:40;;;;;;;35.93;15.67;;;;;;;;;;5039572;28;20548;-52
2023/03/03 02:50:06;;;;;;;30.53;15.30;;;;;;;;;;5012571;28;20446;-52
2023/03/03 02:52:32;;;;;;;29.17;15.70;;;;;;;;;;5039521;28;20482;-53
2023/03/03 02:54:58;;;;;;;35.43;18.63;;;;;;;;;;5008169;28;20546;-51
2023/03/03 02:57:24;;;;;;;33.53;18.07;;;;;;;;;;5038188;28;20453;-52
2023/03/03 02:59:50;;;;;;;30.63;16.53;;;;;;;;;;5004805;28;20450;-52
2023/03/03 03:02:18;;;;;;;33.17;17.63;;;;;;;;;;5032845;28;20230;-53
2023/03/03 03:04:44;;;;;;;28.87;17.23;;;;;;;;;;4972056;28;20450;-52
2023/03/03 03:07:10;;;;;;;34.30;17.43;;;;;;;;;;5034589;28;20556;-52
2023/03/03 03:09:36;;;;;;;28.67;18.80;;;;;;;;;;5014903;28;21200;-52
2023/03/03 03:12:02;;;;;;;30.57;17.40;;;;;;;;;;5034023;28;20435;-52
2023/03/03 03:14:29;;;;;;;27.97;16.43;;;;;;;;;;5020959;28;20434;-52
2023/03/03 03:16:55;;;;;;;30.90;18.43;;;;;;;;;;5026334;28;21001;-54
2023/03/03 03:19:21;;;;;;;25.87;16.20;;;;;;;;;;5018657;28;20438;-52
2023/03/03 03:21:47;;;;;;;26.93;15.67;;;;;;;;;;5024770;28;20486;-53
2023/03/03 03:24:13;;;;;;;31.13;15.37;;;;;;;;;;5028380;28;20915;-53
2023/03/03 03:26:39;;;;;;;35.13;17.80;;;;;;;;;;5022055;28;20278;-52
2023/03/03 03:29:06;;;;;;;25.40;15.60;;;;;;;;;;5032360;28;20502;-51
2023/03/03 03:31:32;;;;;;;28.20;18.10;;;;;;;;;;5028911;28;20449;-53
2023/03/03 03:33:59;;;;;;;31.33;16.60;;;;;;;;;;5036118;28;20431;-54
2023/03/03 03:36:27;;;;;;;35.63;17.87;;;;;;;;;;5002121;28;20446;-53
2023/03/03 03:38:53;;;;;;;32.00;18.73;;;;;;;;;;5036458;28;20430;-55
2023/03/03 03:41:19;;;;;;;24.90;14.67;;;;;;;;;;5008693;28;20508;-52
2023/03/03 03:43:44;;;;;;;26.33;15.33;;;;;;;;;;5038717;28;20432;-53
2023/03/03 03:46:10;;;;;;;27.63;16.97;;;;;;;;;;5014272;28;20458;-52
2023/03/03 03:48:36;;;;;;;43.50;19.03;;;;;;;;;;5044542;28;20525;-53
2023/03/03 03:51:02;;;;;;;29.57;18.33;;;;;;;;;;5014455;28;20439;-53
2023/03/03 03:53:28;;;;;;;37.20;19.40;;;;;;;;;;5037688;28;20529;-53
2023/03/03 03:55:54;;;;;;;38.80;19.87;;;;;;;;;;5011847;28;20470;-54
2023/03/03 03:58:20;;;;;;;33.80;19.70;;;;;;;;;;5037002;28;20434;-52
2023/03/03 04:00:47;;;;;;;31.10;16.83;;;;;;;;;;5029570;28;20537;-52
2023/03/03 04:03:15;;;;;;;28.17;17.03;;;;;;;;;;5034543;28;20446;-52
2023/03/03 04:05:41;;;;;;;46.13;21.60;;;;;;;;;;5015919;28;20538;-53
2023/03/03 04:08:08;;;;;;;43.03;20.83;;;;;;;;;;5038376;28;20472;-52
2023/03/03 04:10:34;;;;;;;40.13;18.07;;;;;;;;;;4995698;28;20497;-54
2023/03/03 04:13:00;;;;;;;39.30;19.17;;;;;;;;;;5032572;28;20468;-54
2023/03/03 04:15:26;;;;;;;34.20;19.33;;;;;;;;;;5010674;28;20440;-53
2023/03/03 04:17:52;;;;;;;40.80;19.93;;;;;;;;;;5032029;28;20871;-50
2023/03/03 04:20:18;;;;;;;45.13;22.77;;;;;;;;;;5003013;28;21400;-54
2023/03/03 04:22:43;;;;;;;58.07;22.43;;;;;;;;;;5040514;28;20818;-52
2023/03/03 04:25:11;;;;;;;39.17;20.57;;;;;;;;;;5012055;28;20584;-54
2023/03/03 04:27:37;;;;;;;35.70;20.37;;;;;;;;;;5034116;28;20525;-51
2023/03/03 04:30:04;;;;;;;34.57;20.50;;;;;;;;;;5029281;28;20454;-55
2023/03/03 04:32:32;;;;;;;42.30;20.90;;;;;;;;;;5036479;28;20888;-54
2023/03/03 04:34:58;;;;;;;40.90;23.23;;;;;;;;;;5030170;28;20861;-54
2023/03/03 04:37:24;;;;;;;37.43;19.47;;;;;;;;;;5032405;28;20518;-52
2023/03/03 04:39:50;;;;;;;39.27;21.50;;;;;;;;;;5004534;28;21235;-51
2023/03/03 04:42:17;;;;;;;35.40;19.43;;;;;;;;;;5032444;28;20615;-54
2023/03/03 04:44:43;;;;;;;38.90;19.77;;;;;;;;;;5039201;28;20487;-54
2023/03/03 04:47:08;;;;;;;34.13;19.27;;;;;;;;;;5035566;28;22780;-54
2023/03/03 04:49:35;;;;;;;39.70;21.27;;;;;;;;;;5018946;28;20511;-51
2023/03/03 04:52:00;;;;;;;33.83;19.80;;;;;;;;;;5031319;28;20486;-54
2023/03/03 04:54:26;;;;;;;39.97;20.57;;;;;;;;;;5017195;28;20474;-52
2023/03/03 04:56:52;;;;;;;36.73;19.30;;;;;;;;;;5022991;28;20447;-52
2023/03/03 04:59:18;;;;;;;35.60;21.83;;;;;;;;;;5028670;28;20437;-53
2023/03/03 05:01:45;;;;;;;32.47;20.40;;;;;;;;;;5019759;28;20208;-52
2023/03/03 05:04:11;;;;;;;38.30;21.43;;;;;;;;;;5036025;28;20441;-50
2023/03/03 05:06:37;;;;;;;50.37;21.33;;;;;;;;;;5030083;28;20454;-51
2023/03/03 05:09:05;;;;;;;39.30;20.40;;;;;;;;;;5027904;28;20515;-52
2023/03/03 05:11:31;;;;;;;34.60;20.10;;;;;;;;;;4991574;28;20497;-53
2023/03/03 05:13:57;;;;;;;35.80;20.57;;;;;;;;;;5031750;28;20497;-53
2023/03/03 05:16:23;;;;;;;38.00;20.63;;;;;;;;;;5026586;28;20514;-52
2023/03/03 05:18:49;;;;;;;33.60;19.67;;;;;;;;;;5030173;28;20422;-51
2023/03/03 05:21:15;;;;;;;40.67;20.23;;;;;;;;;;5007273;28;20475;-53
2023/03/03 05:23:41;;;;;;;40.73;21.50;;;;;;;;;;5031183;28;20492;-52
2023/03/03 05:26:07;;;;;;;46.57;22.47;;;;;;;;;;5013517;28;20183;-52
2023/03/03 05:28:33;;;;;;;37.47;21.17;;;;;;;;;;5035352;28;21334;-52
2023/03/03 05:30:59;;;;;;;44.13;21.87;;;;;;;;;;5017492;28;20454;-50
2023/03/03 05:33:25;;;;;;;38.03;21.10;;;;;;;;;;5035063;28;20429;-52
2023/03/03 05:35:54;;;;;;;41.63;19.20;;;;;;;;;;5033461;28;20446;-52
2023/03/03 05:38:20;;;;;;;40.67;19.50;;;;;;;;;;5028342;28;20438;-52
2023/03/03 05:40:46;;;;;;;34.73;18.23;;;;;;;;;;5033517;28;20431;-52
2023/03/03 05:43:12;;;;;;;37.97;18.90;;;;;;;;;;4988596;28;20760;-52
2023/03/03 05:45:38;;;;;;;45.87;20.83;;;;;;;;;;5015928;28;20514;-52
2023/03/03 05:48:05;;;;;;;37.23;22.80;;;;;;;;;;5034176;28;20472;-51
2023/03/03 05:50:31;;;;;;;35.37;20.10;;;;;;;;;;5028285;28;20579;-50
2023/03/03 05:52:57;;;;;;;31.50;19.37;;;;;;;;;;5036245;28;20818;-51
2023/03/03 05:55:23;;;;;;;48.97;22.80;;;;;;;;;;4997021;28;20442;-52
2023/03/03 05:57:49;;;;;;;34.70;21.80;;;;;;;;;;5031914;28;20495;-52
2023/03/03 06:00:15;;;;;;;36.80;19.30;;;;;;;;;;5005955;28;20457;-51
2023/03/03 06:02:41;;;;;;;43.33;20.73;;;;;;;;;;5028948;28;20224;-52
2023/03/03 06:05:07;;;;;;;42.63;19.33;;;;;;;;;;5008349;28;20449;-52
2023/03/03 06:07:33;;;;;;;38.23;18.43;;;;;;;;;;5043552;28;20448;-55
2023/03/03 06:09:59;;;;;;;35.47;19.97;;;;;;;;;;5031045;28;20445;-52
2023/03/03 06:12:25;;;;;;;49.73;21.03;;;;;;;;;;5037861;28;20433;-51
2023/03/03 06:14:51;;;;;;;37.73;20.00;;;;;;;;;;4990714;28;20456;-51
2023/03/03 06:17:17;;;;;;;40.37;20.30;;;;;;;;;;5038570;28;20469;-53
2023/03/03 06:19:43;;;;;;;30.23;18.73;;;;;;;;;;5030271;28;20447;-51
2023/03/03 06:22:09;;;;;;;37.53;20.67;;;;;;;;;;5035669;28;21041;-53
2023/03/03 06:24:35;;;;;;;35.80;21.00;;;;;;;;;;5007791;28;20426;-52
2023/03/03 06:27:01;;;;;;;33.23;19.23;;;;;;;;;;5006728;28;20448;-51
2023/03/03 06:29:27;;;;;;;28.90;18.17;;;;;;;;;;5035963;28;20601;-52
2023/03/03 06:31:53;;;;;;;31.10;18.97;;;;;;;;;;5015983;28;20953;-52
2023/03/03 06:34:19;;;;;;;31.23;19.57;;;;;;;;;;5029425;28;20437;-52
2023/03/03 06:36:45;;;;;;;37.77;19.17;;;;;;;;;;5019945;28;20536;-52
2023/03/03 06:39:11;;;;;;;40.43;20.63;;;;;;;;;;5024870;28;20434;-51
2023/03/03 06:41:37;;;;;;;49.67;20.20;;;;;;;;;;5023651;28;20487;-51
2023/03/03 06:44:03;;;;;;;36.57;18.90;;;;;;;;;;5019504;28;20472;-51
2023/03/03 06:46:30;;;;;;;36.70;18.47;;;;;;;;;;5024170;28;20446;-52
2023/03/03 06:48:56;;;;;;;39.60;18.50;;;;;;;;;;5005609;28;20895;-52
2023/03/03 06:51:27;;;;;;;32.37;17.87;;;;;;;;;;5038109;28;20438;-52
2023/03/03 06:53:56;;;;;;;40.93;20.00;;;;;;;;;;5010521;28;20183;-52
2023/03/03 06:56:25;;;;;;;33.13;18.30;;;;;;;;;;5037303;28;20442;-50
2023/03/03 06:58:55;;;;;;;31.53;18.57;;;;;;;;;;5014973;28;20441;-53
2023/03/03 07:01:21;;;;;;;34.83;16.83;;;;;;;;;;5044204;28;20493;-51
2023/03/03 07:03:47;;;;;;;31.10;16.47;;;;;;;;;;4995819;28;20436;-52
2023/03/03 07:06:23;;;;;;;33.33;19.40;;;;;;;;;;5004079;28;20497;-53
2023/03/03 07:08:50;;;;;;;30.23;16.67;;;;;;;;;;5040174;28;20441;-54
2023/03/03 07:11:17;;;;;;;30.60;15.00;;;;;;;;;;5007168;28;21071;-55
2023/03/03 07:13:47;;;;;;;30.07;16.13;;;;;;;;;;5046622;28;20506;-53
2023/03/03 07:16:14;;;;;;;22.07;14.43;;;;;;;;;;5021297;28;20484;-53
2023/03/03 07:19:06;;;;;;;31.00;17.60;;;;;;;;;;5045085;28;20445;-53
2023/03/03 07:21:32;;;;;;;27.33;17.13;;;;;;;;;;5007392;28;20686;-52
2023/03/03 07:23:58;;;;;;;27.83;18.03;;;;;;;;;;5044653;28;20501;-52
2023/03/03 07:26:27;;;;;;;42.13;17.87;;;;;;;;;;5020953;28;20179;-53
2023/03/03 07:29:03;;;;;;;27.67;17.37;;;;;;;;;;5049984;28;20439;-52
2023/03/03 07:31:35;;;;;;;31.57;16.50;;;;;;;;;;5040938;28;20444;-53
2023/03/03 07:34:14;;;;;;;32.37;19.03;;;;;;;;;;5043975;28;20440;-53
2023/03/03 07:36:40;;;;;;;43.43;19.47;;;;;;;;;;5040715;28;20541;-55
2023/03/03 07:39:21;;;;;;;29.77;16.43;;;;;;;;;;5059152;28;20501;-53
2023/03/03 07:41:47;;;;;;;34.13;18.93;;;;;;;;;;5033444;28;20532;-54
2023/03/03 07:44:18;;;;;;;28.93;16.33;;;;;;;;;;5031064;28;20470;-53
2023/03/03 07:46:47;;;;;;;27.07;16.70;;;;;;;;;;5032974;28;20188;-54
2023/03/03 07:49:20;;;;;;;28.40;17.07;;;;;;;;;;5031977;28;20592;-51
2023/03/03 07:51:46;;;;;;;30.03;18.00;;;;;;;;;;5037308;28;20794;-53
2023/03/03 07:54:31;;;;;;;35.83;18.43;;;;;;;;;;5028594;28;20472;-53
2023/03/03 07:57:09;;;;;;;30.73;15.50;;;;;;;;;;5041904;28;20184;-54
2023/03/03 07:59:35;;;;;;;29.50;17.83;;;;;;;;;;5040016;28;20468;-54
2023/03/03 08:02:40;;;;;;;33.83;16.50;;;;;;;;;;5010296;28;20561;-53
2023/03/03 08:05:21;;;;;;;35.30;16.23;;;;;;;;;;5037335;28;20466;-53
2023/03/03 08:07:49;;;;;;;35.73;19.30;;;;;;;;;;4991780;28;20775;-53
2023/03/03 08:10:34;;;;;;;36.07;17.70;;;;;;;;;;5040774;28;20449;-52
2023/03/03 08:13:00;;;;;;;30.90;17.10;;;;;;;;;;5020917;28;20541;-53
2023/03/03 08:15:28;;;;;;;28.50;17.40;;;;;;;;;;5057077;28;21015;-52
2023/03/03 08:17:55;;;;;;;26.43;16.70;;;;;;;;;;5017249;28;20477;-53
2023/03/03 08:20:30;;;;;;;36.33;15.77;;;;;;;;;;5040572;28;20435;-52
2023/03/03 08:22:56;;;;;;;31.07;15.33;;;;;;;;;;5022123;28;21109;-55
2023/03/03 08:25:22;;;;;;;29.70;13.97;;;;;;;;;;5044319;28;20425;-52
2023/03/03 08:27:48;;;;;;;28.13;14.83;;;;;;;;;;4998123;28;20469;-52
2023/03/03 08:30:14;;;;;;;24.37;14.50;;;;;;;;;;5039815;28;20427;-53
2023/03/03 08:32:40;;;;;;;36.10;17.00;;;;;;;;;;5017367;28;20442;-52
2023/03/03 08:35:06;;;;;;;28.90;15.13;;;;;;;;;;5039936;28;20886;-53
2023/03/03 08:37:32;;;;;;;26.13;15.77;;;;;;;;;;5019035;28;20179;-53
2023/03/03 08:39:58;;;;;;;21.60;13.90;;;;;;;;;;5037617;28;20453;-53
2023/03/03 08:42:24;;;;;;;26.33;14.97;;;;;;;;;;5033855;28;20525;-54
2023/03/03 08:44:50;;;;;;;24.53;13.30;;;;;;;;;;5044854;28;20434;-53
2023/03/03 08:47:16;;;;;;;24.40;14.47;;;;;;;;;;5030983;28;20503;-52
2023/03/03 08:49:42;;;;;;;23.93;13.60;;;;;;;;;;5033309;28;20187;-52
2023/03/03 08:52:08;;;;;;;16.90;11.47;;;;;;;;;;5012132;28;20538;-54
2023/03/03 08:54:34;;;;;;;22.33;14.20;;;;;;;;;;5038230;28;20529;-53
2023/03/03 08:57:00;;;;;;;23.50;12.60;;;;;;;;;;5017715;28;21074;-54
2023/03/03 08:59:26;;;;;;;26.67;14.77;;;;;;;;;;5037040;28;20466;-52
2023/03/03 09:01:52;;;;;;;21.17;12.50;;;;;;;;;;4985628;28;20484;-52
2023/03/03 09:04:18;;;;;;;18.93;10.97;;;;;;;;;;5040527;28;20606;-52
2023/03/03 09:06:44;;;;;;;20.47;12.43;;;;;;;;;;5022817;28;20430;-53
2023/03/03 09:09:10;;;;;;;19.27;12.20;;;;;;;;;;5013097;28;20506;-53
2023/03/03 09:11:36;;;;;;;21.60;12.00;;;;;;;;;;5028726;28;20533;-52
2023/03/03 09:14:06;;;;;;;25.03;14.07;;;;;;;;;;5011704;28;20473;-52
2023/03/03 09:16:34;;;;;;;23.23;13.27;;;;;;;;;;5033143;28;20449;-52
2023/03/03 09:19:01;;;;;;;18.13;13.77;;;;;;;;;;5029764;28;20566;-52
2023/03/03 09:21:31;;;;;;;20.80;12.83;;;;;;;;;;5032589;28;20481;-53
2023/03/03 09:24:00;;;;;;;18.10;13.70;;;;;;;;;;5018114;28;20561;-52
2023/03/03 09:26:29;;;;;;;19.80;13.17;;;;;;;;;;5035537;28;20461;-53
2023/03/03 09:28:58;;;;;;;25.60;15.00;;;;;;;;;;5012110;28;20446;-53
2023/03/03 09:31:29;;;;;;;24.93;14.77;;;;;;;;;;5025471;28;20445;-52
2023/03/03 09:33:58;;;;;;;29.40;15.90;;;;;;;;;;5038854;28;20799;-52
2023/03/03 09:36:24;;;;;;;24.30;13.93;;;;;;;;;;4983742;28;21974;-52
2023/03/03 09:38:50;;;;;;;19.90;13.00;;;;;;;;;;5038897;28;20565;-52
2023/03/03 09:41:48;;;;;;;28.03;14.70;;;;;;;;;;5004296;28;20572;-52
2023/03/03 09:44:18;;;;;;;27.37;16.90;;;;;;;;;;5029676;28;20482;-53
2023/03/03 09:46:48;;;;;;;25.17;16.03;;;;;;;;;;5024819;28;21772;-51
2023/03/03 09:49:33;;;;;;;21.97;13.67;;;;;;;;;;5033257;28;20423;-52
2023/03/03 09:52:08;;;;;;;24.97;15.53;;;;;;;;;;5018671;28;20491;-52
2023/03/03 09:54:54;;;;;;;25.67;15.63;;;;;;;;;;5033508;28;20804;-53
2023/03/03 09:57:23;;;;;;;25.63;13.67;;;;;;;;;;5005450;28;20473;-53
2023/03/03 09:59:58;;;;;;;25.50;15.80;;;;;;;;;;5030782;28;20807;-51
2023/03/03 10:02:57;;;;;;;21.40;14.10;;;;;;;;;;5010522;28;20877;-51
2023/03/03 10:05:42;;;;;;;23.77;14.70;;;;;;;;;;5000288;28;20424;-55
2023/03/03 10:08:27;;;;;;;23.63;15.67;;;;;;;;;;4965922;28;20434;-53
2023/03/03 10:11:08;;;;;;;21.90;15.13;;;;;;;;;;5034593;28;20498;-58
2023/03/03 10:13:43;;;;;;;22.80;15.63;;;;;;;;;;5002993;28;20541;-52
2023/03/03 10:16:18;;;;;;;27.67;15.87;;;;;;;;;;5039379;28;20450;-51
2023/03/03 10:18:58;;;;;;;28.47;16.80;;;;;;;;;;5007587;28;20549;-51
2023/03/03 10:21:25;;;;;;;21.80;15.27;;;;;;;;;;5033001;28;21028;-53
2023/03/03 10:24:01;;;;;;;26.73;15.40;;;;;;;;;;5026151;28;20574;-53
2023/03/03 10:26:35;;;;;;;25.93;16.00;;;;;;;;;;5033965;28;21360;-52
2023/03/03 10:29:05;;;;;;;32.10;17.47;;;;;;;;;;5006564;28;20454;-52
2023/03/03 10:31:46;;;;;;;28.57;16.77;;;;;;;;;;5041365;28;20426;-52
2023/03/03 10:34:12;;;;;;;25.37;17.33;;;;;;;;;;5016483;28;20450;-52
2023/03/03 10:36:38;;;;;;;26.10;16.33;;;;;;;;;;5039377;28;20492;-52
2023/03/03 10:39:07;;;;;;;22.40;16.50;;;;;;;;;;4998132;28;20184;-52
2023/03/03 10:41:42;;;;;;;27.57;15.67;;;;;;;;;;5009984;28;20524;-52
2023/03/03 10:44:27;;;;;;;28.53;16.40;;;;;;;;;;5025552;28;20434;-52
2023/03/03 10:46:56;;;;;;;22.13;15.20;;;;;;;;;;5007159;28;20560;-52
2023/03/03 10:49:40;;;;;;;27.40;17.20;;;;;;;;;;5034128;28;20445;-52
2023/03/03 10:52:07;;;;;;;24.97;17.40;;;;;;;;;;5004251;28;20473;-52
2023/03/03 10:54:52;;;;;;;18.57;14.60;;;;;;;;;;5037039;28;20434;-52
2023/03/03 10:57:24;;;;;;;26.53;16.57;;;;;;;;;;5014447;28;20442;-53
2023/03/03 10:59:53;;;;;;;28.40;15.97;;;;;;;;;;5029762;28;20869;-53
2023/03/03 11:02:32;;;;;;;32.47;17.20;;;;;;;;;;5015323;28;20489;-52
2023/03/03 11:04:58;;;;;;;22.87;16.50;;;;;;;;;;5054795;28;20466;-52
2023/03/03 11:07:28;;;;;;;19.77;14.07;;;;;;;;;;5010018;28;20662;-52
2023/03/03 11:10:05;;;;;;;24.00;15.90;;;;;;;;;;5036497;28;20190;-52
2023/03/03 11:12:30;;;;;;;28.40;17.33;;;;;;;;;;4986396;28;20426;-54
2023/03/03 11:15:17;;;;;;;25.17;16.67;;;;;;;;;;5027389;28;20555;-52
2023/03/03 11:17:43;;;;;;;26.07;18.23;;;;;;;;;;5007301;28;20456;-52
2023/03/03 11:20:11;;;;;;;23.10;15.47;;;;;;;;;;5022352;28;20446;-52
2023/03/03 11:22:46;;;;;;;32.40;18.87;;;;;;;;;;5008644;28;20296;-52
2023/03/03 11:25:31;;;;;;;31.03;17.33;;;;;;;;;;5034104;28;20448;-53
2023/03/03 11:28:09;;;;;;;24.00;16.10;;;;;;;;;;5021014;28;20478;-52
2023/03/03 11:30:35;;;;;;;25.00;14.90;;;;;;;;;;5031930;28;20423;-52
2023/03/03 11:33:21;;;;;;;23.10;15.80;;;;;;;;;;5008991;28;21478;-53
2023/03/03 11:35:50;;;;;;;25.37;16.83;;;;;;;;;;5031444;28;20435;-53
2023/03/03 11:38:24;;;;;;;23.70;16.10;;;;;;;;;;5017879;28;20495;-53
2023/03/03 11:40:51;;;;;;;25.17;17.50;;;;;;;;;;5035153;28;20450;-52
2023/03/03 11:43:28;;;;;;;25.17;16.20;;;;;;;;;;5012792;28;20441;-52
2023/03/03 11:46:04;;;;;;;27.60;15.90;;;;;;;;;;5025931;28;20526;-54
2023/03/03 11:48:31;;;;;;;27.10;15.97;;;;;;;;;;4989291;28;20438;-51
2023/03/03 11:51:12;;;;;;;27.60;15.47;;;;;;;;;;5009212;28;20501;-52
2023/03/03 11:53:41;;;;;;;24.63;18.17;;;;;;;;;;5034028;28;20442;-58
2023/03/03 11:56:26;;;;;;;22.97;16.33;;;;;;;;;;5036706;28;21021;-52
2023/03/03 11:59:13;;;;;;;28.17;17.07;;;;;;;;;;5035957;28;20434;-53
2023/03/03 12:01:41;;;;;;;26.80;17.27;;;;;;;;;;5031790;28;20850;-52
2023/03/03 12:04:34;;;;;;;23.50;14.70;;;;;;;;;;5037548;28;20417;-53
2023/03/03 12:07:07;;;;;;;26.93;16.63;;;;;;;;;;5020704;28;20443;-55
2023/03/03 12:09:33;;;;;;;25.57;16.50;;;;;;;;;;5043283;28;20438;-53
2023/03/03 12:12:02;;;;;;;24.03;15.97;;;;;;;;;;5035951;28;20811;-51
2023/03/03 12:14:39;;;;;;;21.60;14.90;;;;;;;;;;5028052;28;20439;-52
2023/03/03 12:17:13;;;;;;;31.17;16.57;;;;;;;;;;5033310;28;20683;-51
2023/03/03 12:20:01;;;;;;;24.90;14.53;;;;;;;;;;5042548;28;20439;-55
2023/03/03 12:22:33;;;;;;;21.07;14.90;;;;;;;;;;5030026;28;20476;-52
2023/03/03 12:25:04;;;;;;;19.60;14.50;;;;;;;;;;5008735;28;20561;-53
2023/03/03 12:27:50;;;;;;;22.37;14.47;;;;;;;;;;5029909;28;20522;-53
2023/03/03 12:30:16;;;;;;;21.27;15.20;;;;;;;;;;5019336;28;20458;-54
2023/03/03 12:32:55;;;;;;;18.27;13.30;;;;;;;;;;5045282;28;20442;-51
2023/03/03 12:35:27;;;;;;;27.37;16.83;;;;;;;;;;5012638;28;20442;-53
2023/03/03 12:38:08;;;;;;;26.03;15.43;;;;;;;;;;5045546;28;21336;-52
2023/03/03 12:40:34;;;;;;;26.03;18.60;;;;;;;;;;5017791;28;20457;-51
2023/03/03 12:43:16;;;;;;;22.60;15.37;;;;;;;;;;4968877;28;21065;-52
2023/03/03 12:45:49;;;;;;;25.40;15.90;;;;;;;;;;5001623;28;20444;-54
2023/03/03 12:48:19;;;;;;;23.23;15.90;;;;;;;;;;5042542;28;20492;-53
2023/03/03 12:50:47;;;;;;;23.50;15.50;;;;;;;;;;5008276;28;20818;-53
2023/03/03 12:53:21;;;;;;;27.33;15.27;;;;;;;;;;5036554;28;21157;-53
2023/03/03 12:55:53;;;;;;;25.13;16.47;;;;;;;;;;4966881;28;20470;-52
2023/03/03 12:58:39;;;;;;;25.83;17.63;;;;;;;;;;5052276;28;20438;-53
2023/03/03 13:01:12;;;;;;;26.83;16.43;;;;;;;;;;5026857;28;20466;-52
2023/03/03 13:03:40;;;;;;;19.67;15.50;;;;;;;;;;5030219;28;20517;-53
2023/03/03 13:06:10;;;;;;;20.90;17.00;;;;;;;;;;5012292;28;22774;-53
2023/03/03 13:08:51;;;;;;;20.20;15.90;;;;;;;;;;5034871;28;20438;-52
2023/03/03 13:11:33;;;;;;;22.53;16.70;;;;;;;;;;5008263;28;20448;-51
2023/03/03 13:14:02;;;;;;;26.83;17.10;;;;;;;;;;5040041;28;20951;-53
2023/03/03 13:16:29;;;;;;;22.43;16.57;;;;;;;;;;5003221;28;20446;-52
2023/03/03 13:18:57;;;;;;;25.40;17.97;;;;;;;;;;5034938;28;20517;-56
2023/03/03 13:21:26;;;;;;;26.50;16.70;;;;;;;;;;5013948;28;20530;-52
2023/03/03 13:24:01;;;;;;;25.80;17.90;;;;;;;;;;5036083;28;20466;-52
2023/03/03 13:26:29;;;;;;;22.20;16.70;;;;;;;;;;4967836;28;20449;-53
2023/03/03 13:29:11;;;;;;;23.60;16.53;;;;;;;;;;5047803;28;20443;-53
2023/03/03 13:31:38;;;;;;;23.83;16.00;;;;;;;;;;5002132;28;20450;-51
2023/03/03 13:34:04;;;;;;;21.90;15.50;;;;;;;;;;5039291;28;20857;-53
2023/03/03 13:36:34;;;;;;;21.50;16.07;;;;;;;;;;5009452;28;20478;-54
2023/03/03 13:39:04;;;;;;;20.47;15.27;;;;;;;;;;5039772;28;20249;-53
2023/03/03 13:41:51;;;;;;;23.27;15.83;;;;;;;;;;5005025;28;20577;-52
2023/03/03 13:44:22;;;;;;;19.93;15.60;;;;;;;;;;5054283;28;20788;-54
2023/03/03 13:47:00;;;;;;;24.00;16.57;;;;;;;;;;5047168;28;21130;-52
2023/03/03 13:49:26;;;;;;;23.97;16.00;;;;;;;;;;5043184;28;20434;-53
2023/03/03 13:51:52;;;;;;;22.80;16.90;;;;;;;;;;5015297;28;20443;-52
2023/03/03 13:54:33;;;;;;;28.00;18.80;;;;;;;;;;5038567;28;20499;-52
2023/03/03 13:57:18;;;;;;;22.10;16.77;;;;;;;;;;4962750;28;21023;-54
2023/03/03 13:59:56;;;;;;;21.03;15.83;;;;;;;;;;5030378;28;20446;-54
2023/03/03 14:02:42;;;;;;;23.83;15.70;;;;;;;;;;5035946;28;20466;-52
2023/03/03 14:05:16;;;;;;;25.97;15.70;;;;;;;;;;5044630;28;20423;-49
2023/03/03 14:08:05;;;;;;;24.90;16.90;;;;;;;;;;5014384;28;20468;-51
2023/03/03 14:10:35;;;;;;;32.17;17.90;;;;;;;;;;5017190;28;20427;-53
2023/03/03 14:13:06;;;;;;;30.23;19.27;;;;;;;;;;5013845;28;20446;-52
2023/03/03 14:15:33;;;;;;;30.03;17.97;;;;;;;;;;5037031;28;20438;-52
2023/03/03 14:18:05;;;;;;;27.10;17.07;;;;;;;;;;5038891;28;20539;-50
2023/03/03 14:20:31;;;;;;;20.27;14.40;;;;;;;;;;5039249;28;20533;-54
2023/03/03 14:22:58;;;;;;;30.17;16.00;;;;;;;;;;5017378;28;20478;-51
2023/03/03 14:25:24;;;;;;;22.90;16.00;;;;;;;;;;5054826;28;20430;-53
2023/03/03 14:27:53;;;;;;;25.60;14.73;;;;;;;;;;4992060;28;20527;-52
2023/03/03 14:30:22;;;;;;;21.77;14.77;;;;;;;;;;5037974;28;20458;-52